1870 Hurricane NOT_NAMED (1870324N19317)


IBTrACS version v04r00. Visit IBTrACS website for data access.
Please direct all questions to the IBTrACS Q and A forum

Storm track - Intensity - Wind Radii - Intensity Data - Source Data - All data

Summary Information

Storm ID 1870324N19317
Start Nov 20 06Z
Max Intensity 65 kt (Nov 24 12Z)
End Nov 26 18Z
ATCF IDs
Track status Best track data.

Storm track plot

Map of storm track

Intensity plots

Map of storm track

Radial wind information

No radial wind information for this storm


Position and Intensity Table

BASIN ISO_TIME_________ NATURE LAT LON MLC WIND
degrees north degrees east kts
NA 1870-11-20 06:00:00 TS 18.60 -43.40 45
NA 09:00:00 TS 18.52 -43.34 45
NA 12:00:00 TS 18.60 -43.40 45
NA 15:00:00 TS 18.95 -43.65 45
NA 18:00:00 TS 19.40 -44.00 45
NA 21:00:00 TS 19.75 -44.30 45
NA 1870-11-21 00:00:00 TS 20.10 -44.60 45
NA 03:00:00 TS 20.50 -44.91 45
NA 06:00:00 TS 20.90 -45.20 45
NA 09:00:00 TS 21.25 -45.42 45
NA 12:00:00 TS 21.60 -45.70 45
NA 15:00:00 TS 22.00 -46.16 45
NA 18:00:00 TS 22.40 -46.70 45
NA 21:00:00 TS 22.76 -47.25 45
NA 1870-11-22 00:00:00 TS 23.10 -47.70 45
NA 03:00:00 TS 23.45 -47.93 45
NA 06:00:00 TS 23.80 -48.00 45
NA 09:00:00 TS 24.17 -48.05 47
NA 12:00:00 TS 24.50 -48.00 50
NA 15:00:00 TS 24.72 -47.83 50
NA 18:00:00 TS 24.90 -47.60 50
NA 21:00:00 TS 25.10 -47.40 50
NA 1870-11-23 00:00:00 TS 25.30 -47.20 50
NA 03:00:00 TS 25.51 -46.99 50
NA 06:00:00 TS 25.70 -46.80 50
NA 09:00:00 TS 25.71 -46.70 52
NA 12:00:00 TS 26.00 -46.50 55
NA 15:00:00 TS 26.97 -46.00 55
NA 18:00:00 TS 28.20 -45.40 55
NA 21:00:00 TS 29.37 -44.90 57
NA 1870-11-24 00:00:00 TS 30.30 -44.40 60
NA 03:00:00 TS 30.71 -43.85 60
NA 06:00:00 TS 30.90 -43.30 60
NA 09:00:00 TS 31.10 -42.80 62
NA 12:00:00 TS 31.50 -42.30 65
NA 15:00:00 TS 32.35 -41.75 65
NA 18:00:00 TS 33.40 -41.20 65
NA 21:00:00 TS 34.35 -40.70 65
NA 1870-11-25 00:00:00 TS 35.30 -40.20 65
NA 03:00:00 TS 36.26 -39.66 65
NA 06:00:00 TS 37.20 -39.10 65
NA 09:00:00 TS 38.17 -38.58 65
NA 12:00:00 TS 39.00 -38.00 65
NA 15:00:00 TS 39.54 -37.31 65
NA 18:00:00 TS 40.00 -36.50 65
NA 21:00:00 TS 40.62 -35.78 65
NA 1870-11-26 00:00:00 TS 41.30 -34.50 65
NA 03:00:00 TS 41.72 -32.03 60
NA 06:00:00 ET 42.50 -29.10 55
NA 09:00:00 ET 44.22 -26.06 52
NA 12:00:00 ET 46.30 -23.70 50
NA 15:00:00 ET 48.22 -23.03 47
NA 18:00:00 ET 50.00 -23.50 45

Source Information

Agency Information
USA
TOKYO
CMA
HKO
NEWDELHI
REUNION
BOM
NADI
WELLINGTON
DS824
TD9636
TD9635
NEUMANN
MLC

All available IBTrACS Data

SEASON BASIN SUBBASIN ISO_TIME_________ NATURE LAT LON DIST2LAND LANDFALL IFLAG USA SSHS MLC LAT MLC LON MLC CLASS MLC WIND STORM SPEED STORM DIR
Year degrees north degrees east km km 1 degrees north degrees east kts kts degrees
1870 NA NA 1870-11-20 06:00:00 TS 18.60 -43.40 1802 1793 _____________O -1 18.60 -43.40 TS 45 2 148
1870 NA NA 09:00:00 TS 18.52 -43.34 1799 1793 _____________P -1 18.52 -43.34 TS 45 0 0
1870 NA NA 12:00:00 TS 18.60 -43.40 1802 1802 _____________O -1 18.60 -43.40 TS 45 5 325
1870 NA NA 15:00:00 TS 18.95 -43.65 1812 1812 _____________P -1 18.95 -43.65 TS 45 10 325
1870 NA NA 18:00:00 TS 19.40 -44.00 1843 1843 _____________O -1 19.40 -44.00 TS 45 10 323
1870 NA NA 21:00:00 TS 19.75 -44.30 1855 1855 _____________P -1 19.75 -44.30 TS 45 9 321
1870 NA NA 1870-11-21 00:00:00 TS 20.10 -44.60 1879 1879 _____________O -1 20.10 -44.60 TS 45 9 323
1870 NA NA 03:00:00 TS 20.50 -44.91 1903 1903 _____________P -1 20.50 -44.91 TS 45 10 325
1870 NA NA 06:00:00 TS 20.90 -45.20 1929 1929 _____________O -1 20.90 -45.20 TS 45 9 327
1870 NA NA 09:00:00 TS 21.25 -45.42 1950 1950 _____________P -1 21.25 -45.42 TS 45 8 326
1870 NA NA 12:00:00 TS 21.60 -45.70 1978 1978 _____________O -1 21.60 -45.70 TS 45 10 317
1870 NA NA 15:00:00 TS 22.00 -46.16 1997 1997 _____________P -1 22.00 -46.16 TS 45 12 311
1870 NA NA 18:00:00 TS 22.40 -46.70 2006 1973 _____________O -1 22.40 -46.70 TS 45 13 307
1870 NA NA 21:00:00 TS 22.76 -47.25 1965 1932 _____________P -1 22.76 -47.25 TS 45 12 307
1870 NA NA 1870-11-22 00:00:00 TS 23.10 -47.70 1932 1917 _____________O -1 23.10 -47.70 TS 45 9 318
1870 NA NA 03:00:00 TS 23.45 -47.93 1919 1912 _____________P -1 23.45 -47.93 TS 45 8 339
1870 NA NA 06:00:00 TS 23.80 -48.00 1920 1920 _____________O -1 23.80 -48.00 TS 45 7 350
1870 NA NA 09:00:00 TS 24.17 -48.05 1923 1923 _____________P -1 24.17 -48.05 TS 47 7 0
1870 NA NA 12:00:00 TS 24.50 -48.00 1942 1942 _____________O -1 24.50 -48.00 TS 50 6 20
1870 NA NA 15:00:00 TS 24.72 -47.83 1968 1968 _____________P -1 24.72 -47.83 TS 50 5 42
1870 NA NA 18:00:00 TS 24.90 -47.60 1994 1994 _____________O -1 24.90 -47.60 TS 50 5 46
1870 NA NA 21:00:00 TS 25.10 -47.40 2020 2020 _____________P -1 25.10 -47.40 TS 50 5 42
1870 NA NA 1870-11-23 00:00:00 TS 25.30 -47.20 2046 2046 _____________O -1 25.30 -47.20 TS 50 6 42
1870 NA NA 03:00:00 TS 25.51 -46.99 2072 2072 _____________P -1 25.51 -46.99 TS 50 5 42
1870 NA NA 06:00:00 TS 25.70 -46.80 2098 2098 _____________O -1 25.70 -46.80 TS 50 3 52
1870 NA NA 09:00:00 TS 25.71 -46.70 2108 2108 _____________P -1 25.71 -46.70 TS 52 4 42
1870 NA NA 12:00:00 TS 26.00 -46.50 2138 2138 _____________O -1 26.00 -46.50 TS 55 14 27
1870 NA NA 15:00:00 TS 26.97 -46.00 2223 2166 _____________P -1 26.97 -46.00 TS 55 24 24
1870 NA NA 18:00:00 TS 28.20 -45.40 2158 2052 _____________O -1 28.20 -45.40 TS 55 26 22
1870 NA NA 21:00:00 TS 29.37 -44.90 2045 1966 _____________P -1 29.37 -44.90 TS 57 23 23
1870 NA NA 1870-11-24 00:00:00 TS 30.30 -44.40 1966 1937 _____________O -1 30.30 -44.40 TS 60 16 34
1870 NA NA 03:00:00 TS 30.71 -43.85 1944 1934 _____________P -1 30.71 -43.85 TS 60 11 58
1870 NA NA 06:00:00 TS 30.90 -43.30 1942 1937 _____________O -1 30.90 -43.30 TS 60 10 67
1870 NA NA 09:00:00 TS 31.10 -42.80 1941 1920 _____________P -1 31.10 -42.80 TS 62 10 55
1870 NA NA 12:00:00 TS 31.50 -42.30 1920 1862 _____________O -1 31.50 -42.30 HU 65 15 36
1870 NA NA 15:00:00 TS 32.35 -41.75 1852 1788 _____________P -1 32.35 -41.75 HU 65 21 26
1870 NA NA 18:00:00 TS 33.40 -41.20 1783 1723 _____________O -1 33.40 -41.20 HU 65 22 24
1870 NA NA 21:00:00 TS 34.35 -40.70 1723 1661 _____________P -1 34.35 -40.70 HU 65 21 23
1870 NA NA 1870-11-25 00:00:00 TS 35.30 -40.20 1658 1607 _____________O -1 35.30 -40.20 HU 65 21 24
1870 NA NA 03:00:00 TS 36.26 -39.66 1598 1561 _____________P -1 36.26 -39.66 HU 65 21 25
1870 NA NA 06:00:00 TS 37.20 -39.10 1559 1519 _____________O -1 37.20 -39.10 HU 65 21 24
1870 NA NA 09:00:00 TS 38.17 -38.58 1511 1490 _____________P -1 38.17 -38.58 HU 65 20 26
1870 NA NA 12:00:00 TS 39.00 -38.00 1490 1488 _____________O -1 39.00 -38.00 HU 65 17 36
1870 NA NA 15:00:00 TS 39.54 -37.31 1502 1495 _____________P -1 39.54 -37.31 HU 65 15 49
1870 NA NA 18:00:00 TS 40.00 -36.50 1523 1523 _____________O -1 40.00 -36.50 HU 65 16 47
1870 NA NA 21:00:00 TS 40.62 -35.78 1535 1535 _____________P -1 40.62 -35.78 HU 65 20 49
1870 NA NA 1870-11-26 00:00:00 TS 41.30 -34.50 1584 1584 _____________O -1 41.30 -34.50 HU 65 30 69
1870 NA NA 03:00:00 TS 41.72 -32.03 1741 1626 _____________P -1 41.72 -32.03 HU 60 42 73
1870 NA NA 06:00:00 ET 42.50 -29.10 1608 1360 _____________O -1 42.50 -29.10 EX 55 50 60
1870 NA NA 09:00:00 ET 44.22 -26.06 1352 1151 _____________P -1 44.22 -26.06 EX 52 54 46
1870 NA NA 12:00:00 ET 46.30 -23.70 1139 984 _____________O -1 46.30 -23.70 EX 50 45 28
1870 NA NA 15:00:00 ET 48.22 -23.03 979 933 _____________P -1 48.22 -23.03 EX 47 37 2
1870 NA NA 18:00:00 ET 50.00 -23.50 932 _____________O -1 50.00 -23.50 EX 45 36 350